Terminal Aerodrome Forecast
Issued by NWS Wilmington, OH

Current Version | Previous Version | Graphics & Text | Print | Product List | Glossary On
Versions: 1 2 3 4 5 6 7 8 9 10 11 12 13 14 15 16
000
FTUS41 KILN 221100
TAFILN
TAF
KILN 221133Z 2212/2312 27009KT P6SM SCT025 OVC060
      TEMPO 2212/2213 BKN025
     FM221300 29014KT P6SM BKN015 OVC050
     FM221600 30015KT P6SM SCT022
     FM221800 31016G24KT P6SM FEW040
     FM230000 33010KT P6SM SKC=

USA.gov is the U.S. government's official web portal to all federal, state and local government web resources and services.